Garupa, Argentina
Current Conditions -  °F | °C
As of 11:00 AM on Sunday 21 Dec 2014 (Local Time) from SARP Reporting Station
Light Rain Light Rain  
Wind Chill: 68°   Ceiling: 4500
Heat Index: 68°   Visibility: 5mi
Dew Point: 68°   Wind: 13mph
Humidity: 100%   Direction: 180°S
Pressure: 29.68"   Gusts: NA
Location:  27.48°S, 55.83°W
Report Text: SARP 211400Z 18011KT 8000 -RA BR SCT010 SCT012OVC045 20/20 Q1005 RETSRA
Loading
Personal Weather Stations






























Interactive Weather Map New forecast layout! Learn more

10-Day Weather Forecast

Advertisements
Track Severe Weather on mobile